createdAt,value
2023-08-31T00:02:21.803Z,17.53
2023-08-31T00:04:55.594Z,17.50
2023-08-31T00:07:28.604Z,17.49
2023-08-31T00:10:07.828Z,17.48
2023-08-31T00:12:40.912Z,17.48
2023-08-31T00:15:14.477Z,17.46
2023-08-31T00:17:47.735Z,17.46
2023-08-31T00:20:20.669Z,17.46
2023-08-31T00:22:53.872Z,17.45
2023-08-31T00:25:29.405Z,17.43
2023-08-31T00:28:06.104Z,17.41
2023-08-31T00:30:39.202Z,17.38
2023-08-31T00:33:12.895Z,17.48
2023-08-31T00:35:47.154Z,17.35
2023-08-31T00:38:20.738Z,17.30
2023-08-31T00:40:55.357Z,17.25
2023-08-31T00:43:29.479Z,17.22
2023-08-31T00:46:02.729Z,17.21
2023-08-31T00:48:36.352Z,17.23
2023-08-31T00:51:11.535Z,17.26
2023-08-31T00:53:44.677Z,17.28
2023-08-31T00:56:19.434Z,17.29
2023-08-31T00:58:55.762Z,17.31
2023-08-31T01:01:38.242Z,17.31
2023-08-31T01:04:22.544Z,17.32
2023-08-31T01:07:04.018Z,17.33
2023-08-31T01:09:42.853Z,17.34
2023-08-31T01:12:30.716Z,17.33
2023-08-31T01:15:09.001Z,17.33
2023-08-31T01:17:46.648Z,17.34
2023-08-31T01:20:38.422Z,17.35
2023-08-31T01:23:18.226Z,17.36
2023-08-31T01:25:53.423Z,17.33
2023-08-31T01:28:29.687Z,17.33
2023-08-31T01:31:06.534Z,17.33
2023-08-31T01:33:42.417Z,17.32
2023-08-31T01:36:22.549Z,17.33
2023-08-31T01:39:04.627Z,17.34
2023-08-31T01:41:42.554Z,17.32
2023-08-31T01:44:18.843Z,17.32
2023-08-31T01:46:54.777Z,17.31
2023-08-31T01:49:30.276Z,17.32
2023-08-31T01:52:03.793Z,17.32
2023-08-31T01:54:38.523Z,17.32
2023-08-31T01:57:12.790Z,17.29
2023-08-31T02:00:07.181Z,17.29
2023-08-31T02:02:47.470Z,17.30
2023-08-31T02:05:20.484Z,17.31
2023-08-31T02:07:53.359Z,17.33
2023-08-31T02:10:27.523Z,17.34
2023-08-31T02:13:01.785Z,17.35
2023-08-31T02:15:34.733Z,17.36
2023-08-31T02:18:09.496Z,17.36
2023-08-31T02:20:42.458Z,17.34
2023-08-31T02:23:15.396Z,17.31
2023-08-31T02:25:48.324Z,17.30
2023-08-31T02:28:22.891Z,17.40
2023-08-31T02:31:01.339Z,17.29
2023-08-31T02:33:37.399Z,17.23
2023-08-31T02:36:10.346Z,17.20
2023-08-31T02:38:43.204Z,17.19
2023-08-31T02:41:16.133Z,17.18
2023-08-31T02:43:52.672Z,17.17
2023-08-31T02:46:25.762Z,17.16
2023-08-31T02:48:58.692Z,17.15
2023-08-31T02:51:31.530Z,17.16
2023-08-31T02:54:05.034Z,17.15
2023-08-31T02:56:37.710Z,17.27
2023-08-31T02:59:12.227Z,17.16
2023-08-31T03:01:47.516Z,17.15
2023-08-31T03:04:20.717Z,17.14
2023-08-31T03:06:53.583Z,17.14
2023-08-31T03:09:26.498Z,17.14
2023-08-31T03:11:59.454Z,17.14
2023-08-31T03:14:33.779Z,17.12
2023-08-31T03:17:06.717Z,17.11
2023-08-31T03:19:39.685Z,17.10
2023-08-31T03:22:12.607Z,17.08
2023-08-31T03:24:45.642Z,17.04
2023-08-31T03:27:18.637Z,17.02
2023-08-31T03:29:53.062Z,16.98
2023-08-31T03:32:25.919Z,16.95
2023-08-31T03:34:58.850Z,16.90
2023-08-31T03:37:31.877Z,16.87
2023-08-31T03:40:07.782Z,16.83
2023-08-31T03:42:41.192Z,16.83
2023-08-31T03:45:15.445Z,16.83
2023-08-31T03:47:48.733Z,16.85
2023-08-31T03:50:21.674Z,16.87
2023-08-31T03:52:54.546Z,16.88
2023-08-31T03:55:27.497Z,16.89
2023-08-31T03:58:00.513Z,16.89
2023-08-31T04:00:34.843Z,16.88
2023-08-31T04:03:08.032Z,16.87
2023-08-31T04:05:41.078Z,16.87
2023-08-31T04:08:14.537Z,16.88
2023-08-31T04:10:47.324Z,17.01
2023-08-31T04:13:20.930Z,16.93
2023-08-31T04:15:55.752Z,16.92
2023-08-31T04:18:28.666Z,16.92
2023-08-31T04:21:04.307Z,16.95
2023-08-31T04:23:37.304Z,16.91
2023-08-31T04:26:13.759Z,16.91
2023-08-31T04:28:46.808Z,16.90
2023-08-31T04:31:21.118Z,16.91
2023-08-31T04:33:55.349Z,16.90
2023-08-31T04:36:28.357Z,16.89
2023-08-31T04:39:01.190Z,16.87
2023-08-31T04:41:34.233Z,16.84
2023-08-31T04:44:07.262Z,16.82
2023-08-31T04:46:42.675Z,16.82
2023-08-31T04:49:15.554Z,16.83
2023-08-31T04:51:48.577Z,16.83
2023-08-31T04:54:21.438Z,16.82
2023-08-31T04:56:54.354Z,16.80
2023-08-31T04:59:27.279Z,16.78
2023-08-31T05:02:01.546Z,16.76
2023-08-31T05:04:34.462Z,16.77
2023-08-31T05:07:07.384Z,16.79
2023-08-31T05:09:40.431Z,16.81
2023-08-31T05:12:13.299Z,16.82
2023-08-31T05:14:46.217Z,16.85
2023-08-31T05:17:20.552Z,16.88
2023-08-31T05:19:53.495Z,16.92
2023-08-31T05:22:26.356Z,16.94
2023-08-31T05:24:59.214Z,16.94
2023-08-31T05:27:32.217Z,16.96
2023-08-31T05:30:06.227Z,16.98
2023-08-31T05:32:40.549Z,17.01
2023-08-31T05:35:13.440Z,17.06
2023-08-31T05:37:46.309Z,17.11
2023-08-31T05:40:19.534Z,17.16
2023-08-31T05:42:52.405Z,17.21
2023-08-31T05:45:25.360Z,17.27
2023-08-31T05:47:59.585Z,17.33
2023-08-31T05:50:32.973Z,17.38
2023-08-31T05:53:06.610Z,17.45
2023-08-31T05:55:39.531Z,17.51
2023-08-31T05:58:12.540Z,17.56
2023-08-31T06:00:45.535Z,17.60
2023-08-31T06:03:19.783Z,17.65
2023-08-31T06:05:52.829Z,17.74
2023-08-31T06:08:26.073Z,17.81
2023-08-31T06:10:59.807Z,17.87
2023-08-31T06:13:32.956Z,17.98
2023-08-31T06:16:06.049Z,18.09
2023-08-31T06:18:40.369Z,18.23
2023-08-31T06:21:13.339Z,18.32
2023-08-31T06:23:46.309Z,18.42
2023-08-31T06:26:19.271Z,18.51
2023-08-31T06:28:52.325Z,18.60
2023-08-31T06:31:25.261Z,18.68
2023-08-31T06:33:59.546Z,18.78
2023-08-31T06:36:32.609Z,18.82
2023-08-31T06:39:06.571Z,18.92
2023-08-31T06:41:39.418Z,19.01
2023-08-31T06:44:12.329Z,19.10
2023-08-31T06:46:45.213Z,19.18
2023-08-31T06:49:19.521Z,19.19
2023-08-31T06:51:52.393Z,19.19
2023-08-31T06:54:27.115Z,19.24
2023-08-31T06:56:59.974Z,19.31
2023-08-31T06:59:32.866Z,19.37
2023-08-31T07:02:06.182Z,19.46
2023-08-31T07:04:40.577Z,19.56
2023-08-31T07:07:15.115Z,19.66
2023-08-31T07:09:49.325Z,19.83
2023-08-31T07:12:22.437Z,20.12
2023-08-31T07:14:55.365Z,20.53
2023-08-31T07:17:31.506Z,21.00
2023-08-31T07:20:07.854Z,21.42
2023-08-31T07:22:41.773Z,21.76
2023-08-31T07:25:14.821Z,21.98
2023-08-31T07:27:50.660Z,22.11
2023-08-31T07:30:23.523Z,22.30
2023-08-31T07:32:56.540Z,22.41
2023-08-31T07:35:30.908Z,22.66
2023-08-31T07:38:06.118Z,23.03
2023-08-31T07:40:39.398Z,23.33
2023-08-31T07:43:12.586Z,23.76
2023-08-31T07:45:45.900Z,24.02
2023-08-31T07:48:18.840Z,24.35
2023-08-31T07:50:53.119Z,24.52
2023-08-31T07:53:27.456Z,24.56
2023-08-31T07:56:01.674Z,24.62
2023-08-31T07:58:34.551Z,24.69
2023-08-31T08:01:07.623Z,24.63
2023-08-31T08:03:40.487Z,24.72
2023-08-31T08:06:16.278Z,24.73
2023-08-31T08:08:49.222Z,24.81
2023-08-31T08:11:22.116Z,25.08
2023-08-31T08:13:55.063Z,25.35
2023-08-31T08:16:28.229Z,25.80
2023-08-31T08:19:01.076Z,26.55
2023-08-31T08:21:35.450Z,27.34
2023-08-31T08:24:08.706Z,28.34
2023-08-31T08:26:41.671Z,29.33
2023-08-31T08:29:14.338Z,30.67
2023-08-31T08:31:47.424Z,31.89
2023-08-31T08:34:25.593Z,32.54
2023-08-31T08:36:59.927Z,32.04
2023-08-31T08:39:33.014Z,31.23
2023-08-31T08:42:07.828Z,30.24
2023-08-31T08:44:41.462Z,29.25
2023-08-31T08:47:14.416Z,28.39
2023-08-31T08:49:48.669Z,27.64
2023-08-31T08:52:23.918Z,27.04
2023-08-31T08:54:59.279Z,26.58
2023-08-31T08:57:33.050Z,26.31
2023-08-31T09:00:07.628Z,26.15
2023-08-31T09:02:40.687Z,26.07
2023-08-31T09:05:13.435Z,26.42
2023-08-31T09:08:06.546Z,26.62
2023-08-31T09:10:40.807Z,26.67
2023-08-31T09:13:16.574Z,26.91
2023-08-31T09:15:50.893Z,27.07
2023-08-31T09:18:27.126Z,27.42
2023-08-31T09:21:00.306Z,27.86
2023-08-31T09:23:34.771Z,28.69
2023-08-31T09:26:07.866Z,28.87
2023-08-31T09:28:43.215Z,29.74
2023-08-31T09:31:16.299Z,30.12
2023-08-31T09:33:53.273Z,29.84
2023-08-31T09:36:26.390Z,29.90
2023-08-31T09:39:01.254Z,29.37
2023-08-31T09:41:35.013Z,28.72
2023-08-31T09:44:18.338Z,28.06
2023-08-31T09:46:51.316Z,27.39
2023-08-31T09:49:24.147Z,27.06
2023-08-31T09:51:57.182Z,26.81
2023-08-31T09:54:32.001Z,27.36
2023-08-31T09:57:05.718Z,28.66
2023-08-31T09:59:41.353Z,29.46
2023-08-31T10:02:16.813Z,29.39
2023-08-31T10:04:53.694Z,29.07
2023-08-31T10:07:26.795Z,28.53
2023-08-31T10:10:04.550Z,28.20
2023-08-31T10:12:37.932Z,28.38
2023-08-31T10:15:12.638Z,30.20
2023-08-31T10:17:46.200Z,31.75
2023-08-31T10:20:19.790Z,32.67
2023-08-31T10:22:52.641Z,33.97
2023-08-31T10:25:28.150Z,34.52
2023-08-31T10:28:01.058Z,35.13
2023-08-31T10:30:34.077Z,36.39
2023-08-31T10:33:24.650Z,36.04
2023-08-31T10:35:58.398Z,35.80
2023-08-31T10:38:32.571Z,35.57
2023-08-31T10:41:21.820Z,35.07
2023-08-31T10:43:58.734Z,34.27
2023-08-31T10:46:34.074Z,33.47
2023-08-31T10:49:16.535Z,32.61
2023-08-31T10:51:51.283Z,31.79
2023-08-31T10:54:26.117Z,31.01
2023-08-31T10:57:08.285Z,30.51
2023-08-31T10:59:49.084Z,29.87
2023-08-31T11:02:33.853Z,29.43
2023-08-31T11:05:14.508Z,29.11
2023-08-31T11:07:49.237Z,28.85
2023-08-31T11:10:24.822Z,28.81
2023-08-31T11:12:59.370Z,29.12
2023-08-31T11:15:33.140Z,29.11
2023-08-31T11:18:07.533Z,28.89
2023-08-31T11:20:40.511Z,28.67
2023-08-31T11:23:13.541Z,28.81
2023-08-31T11:25:46.680Z,28.72
2023-08-31T11:28:21.296Z,28.51
2023-08-31T11:30:54.212Z,28.32
2023-08-31T11:33:33.361Z,28.33
2023-08-31T11:36:07.844Z,28.91
2023-08-31T11:38:41.428Z,29.41
2023-08-31T11:41:14.575Z,29.39
2023-08-31T11:43:49.660Z,29.28
2023-08-31T11:46:22.816Z,30.16
2023-08-31T11:48:56.077Z,30.53
2023-08-31T11:51:30.652Z,31.17
2023-08-31T11:54:04.302Z,31.75
2023-08-31T11:56:44.990Z,31.89
2023-08-31T11:59:20.816Z,31.66
2023-08-31T12:01:53.854Z,31.45
2023-08-31T12:04:27.628Z,30.99
2023-08-31T12:07:05.876Z,30.62
2023-08-31T12:09:39.353Z,30.21
2023-08-31T12:12:12.496Z,29.88
2023-08-31T12:14:46.791Z,29.52
2023-08-31T12:17:21.404Z,29.02
2023-08-31T12:19:54.349Z,28.55
2023-08-31T12:22:27.329Z,28.17
2023-08-31T12:25:00.322Z,27.89
2023-08-31T12:27:33.299Z,27.63
2023-08-31T12:30:08.428Z,27.18
2023-08-31T12:32:41.504Z,26.35
2023-08-31T12:35:15.519Z,25.56
2023-08-31T12:37:48.473Z,24.79
2023-08-31T12:40:21.543Z,24.05
2023-08-31T12:42:54.201Z,23.41
2023-08-31T12:45:28.483Z,22.76
2023-08-31T12:48:01.476Z,22.28
2023-08-31T12:50:34.626Z,21.90
2023-08-31T12:53:07.512Z,21.65
2023-08-31T12:55:40.463Z,21.48
2023-08-31T12:58:13.349Z,21.34
2023-08-31T13:00:50.109Z,21.20
2023-08-31T13:03:23.076Z,21.04
2023-08-31T13:05:56.214Z,20.92
2023-08-31T13:08:29.921Z,20.76
2023-08-31T13:11:04.931Z,20.62
2023-08-31T13:13:37.799Z,20.48
2023-08-31T13:16:12.382Z,20.35
2023-08-31T13:18:45.351Z,20.20
2023-08-31T13:21:18.345Z,20.04
2023-08-31T13:23:51.284Z,19.89
2023-08-31T13:26:24.149Z,19.73
2023-08-31T13:28:57.059Z,19.57
2023-08-31T13:31:31.318Z,19.31
2023-08-31T13:34:04.776Z,19.13
2023-08-31T13:36:37.482Z,19.06
2023-08-31T13:39:10.931Z,18.88
2023-08-31T13:41:43.977Z,18.88
2023-08-31T13:44:16.924Z,19.04
2023-08-31T13:46:51.529Z,19.29
2023-08-31T13:49:24.485Z,19.48
2023-08-31T13:51:57.370Z,19.67
2023-08-31T13:54:30.257Z,19.91
2023-08-31T13:57:03.884Z,20.10
2023-08-31T13:59:36.811Z,20.23
2023-08-31T14:02:11.061Z,20.36
2023-08-31T14:04:44.075Z,20.45
2023-08-31T14:07:17.489Z,20.54
2023-08-31T14:09:51.662Z,20.66
2023-08-31T14:12:25.783Z,20.65
2023-08-31T14:15:00.150Z,20.72
2023-08-31T14:17:34.473Z,20.77
2023-08-31T14:20:10.662Z,20.82
2023-08-31T14:22:47.915Z,20.83
2023-08-31T14:25:21.314Z,20.86
2023-08-31T14:27:54.335Z,20.98
2023-08-31T14:30:27.610Z,20.92
2023-08-31T14:33:02.258Z,20.90
2023-08-31T14:35:38.777Z,20.94
2023-08-31T14:38:13.684Z,20.97
2023-08-31T14:40:47.141Z,20.94
2023-08-31T14:43:20.361Z,20.92
2023-08-31T14:45:53.610Z,20.86
2023-08-31T14:48:27.971Z,20.95
2023-08-31T14:51:01.729Z,20.86
2023-08-31T14:53:35.175Z,20.85
2023-08-31T14:56:09.264Z,20.78
2023-08-31T14:58:42.646Z,20.68
2023-08-31T15:01:15.917Z,20.64
2023-08-31T15:03:50.371Z,20.71
2023-08-31T15:06:23.696Z,20.53
2023-08-31T15:08:56.642Z,20.56
2023-08-31T15:11:29.950Z,20.39
2023-08-31T15:14:05.286Z,20.47
2023-08-31T15:16:39.229Z,20.30
2023-08-31T15:19:13.891Z,20.21
2023-08-31T15:21:47.095Z,20.18
2023-08-31T15:24:20.177Z,20.27
2023-08-31T15:26:53.654Z,20.17
2023-08-31T15:29:28.945Z,20.12
2023-08-31T15:32:02.193Z,20.10
2023-08-31T15:34:37.150Z,20.09
2023-08-31T15:37:10.398Z,20.09
2023-08-31T15:39:43.646Z,20.15
2023-08-31T15:42:16.863Z,20.20
2023-08-31T15:44:50.096Z,20.24
2023-08-31T15:47:23.476Z,20.29
2023-08-31T15:49:58.115Z,20.42
2023-08-31T15:52:32.518Z,20.29
2023-08-31T15:55:06.701Z,20.21
2023-08-31T15:57:39.950Z,20.14
2023-08-31T16:00:13.703Z,20.06
2023-08-31T16:02:47.020Z,20.00
2023-08-31T16:05:22.282Z,20.06
2023-08-31T16:07:55.523Z,19.87
2023-08-31T16:10:28.865Z,19.80
2023-08-31T16:13:02.095Z,19.72
2023-08-31T16:15:35.398Z,19.62
2023-08-31T16:18:08.732Z,19.52
2023-08-31T16:20:43.544Z,19.53
2023-08-31T16:23:16.772Z,19.34
2023-08-31T16:25:50.408Z,19.26
2023-08-31T16:28:23.938Z,19.19
2023-08-31T16:30:58.816Z,19.13
2023-08-31T16:33:32.180Z,19.05
2023-08-31T16:36:07.274Z,18.97
2023-08-31T16:38:40.531Z,18.90
2023-08-31T16:41:13.811Z,18.84
2023-08-31T16:43:47.018Z,18.79
2023-08-31T16:46:20.349Z,18.74
2023-08-31T16:48:53.690Z,18.67
2023-08-31T16:51:28.435Z,18.61
2023-08-31T16:54:01.704Z,18.55
2023-08-31T16:56:35.046Z,18.49
2023-08-31T16:59:08.397Z,18.41
2023-08-31T17:01:41.729Z,18.36
2023-08-31T17:04:15.006Z,18.32
2023-08-31T17:06:51.235Z,18.27
2023-08-31T17:09:24.463Z,18.22
2023-08-31T17:11:59.729Z,18.28
2023-08-31T17:14:34.095Z,18.14
2023-08-31T17:17:07.361Z,18.06
2023-08-31T17:19:40.550Z,18.00
2023-08-31T17:22:15.111Z,17.93
2023-08-31T17:24:48.448Z,17.87
2023-08-31T17:27:22.137Z,17.84
2023-08-31T17:29:55.386Z,17.80
2023-08-31T17:32:28.702Z,17.75
2023-08-31T17:35:04.345Z,17.71
2023-08-31T17:37:39.868Z,17.66
2023-08-31T17:40:13.348Z,17.62
2023-08-31T17:42:46.300Z,17.70
2023-08-31T17:45:21.078Z,17.59
2023-08-31T17:47:55.899Z,17.56
2023-08-31T17:50:28.891Z,17.65
2023-08-31T17:53:03.695Z,17.53
2023-08-31T17:55:36.985Z,17.47
2023-08-31T18:00:44.498Z,17.41
2023-08-31T18:03:18.167Z,17.39
2023-08-31T18:05:52.568Z,17.37
2023-08-31T18:08:28.975Z,17.34
2023-08-31T18:11:02.273Z,17.33
2023-08-31T18:13:35.704Z,17.31
2023-08-31T18:16:09.022Z,17.28
2023-08-31T18:18:42.360Z,17.23
2023-08-31T18:21:15.633Z,17.19
2023-08-31T18:23:50.237Z,17.14
2023-08-31T18:26:23.857Z,17.06
2023-08-31T18:28:56.913Z,17.14
2023-08-31T18:31:30.363Z,16.97
2023-08-31T18:34:04.617Z,16.90
2023-08-31T18:36:39.916Z,16.82
2023-08-31T18:39:14.618Z,16.76
2023-08-31T18:41:47.890Z,16.74
2023-08-31T18:44:22.081Z,16.70
2023-08-31T18:46:55.299Z,16.66
2023-08-31T18:49:28.663Z,16.66
2023-08-31T18:52:01.964Z,16.64
2023-08-31T18:54:36.646Z,16.62
2023-08-31T18:57:11.454Z,16.60
2023-08-31T18:59:44.693Z,16.58
2023-08-31T19:02:17.980Z,16.57
2023-08-31T19:04:53.270Z,16.56
2023-08-31T19:07:26.508Z,16.55
2023-08-31T19:10:08.470Z,16.52
2023-08-31T19:12:44.582Z,16.50
2023-08-31T19:15:18.976Z,16.46
2023-08-31T19:17:54.506Z,16.42
2023-08-31T19:20:27.730Z,16.41
2023-08-31T19:23:01.394Z,16.40
2023-08-31T19:25:35.817Z,16.51
2023-08-31T19:28:09.559Z,16.36
2023-08-31T19:30:42.789Z,16.31
2023-08-31T19:33:17.417Z,16.27
2023-08-31T19:38:30.596Z,16.21
2023-08-31T19:41:05.597Z,16.16
2023-08-31T19:46:38.340Z,16.10
2023-08-31T19:49:15.953Z,16.08
2023-08-31T19:51:49.658Z,16.04
2023-08-31T19:54:25.573Z,16.01
2023-08-31T19:57:05.823Z,15.98
2023-08-31T19:59:39.324Z,15.95
2023-08-31T20:02:18.611Z,15.95
2023-08-31T20:04:51.840Z,15.93
2023-08-31T20:07:25.888Z,16.02
2023-08-31T20:10:00.458Z,15.89
2023-08-31T20:12:37.966Z,15.84
2023-08-31T20:15:11.788Z,15.79
2023-08-31T20:17:45.084Z,15.75
2023-08-31T20:20:20.311Z,15.72
2023-08-31T20:22:53.619Z,15.69
2023-08-31T20:25:26.875Z,15.68
2023-08-31T20:28:01.516Z,15.66
2023-08-31T20:30:34.832Z,15.64
2023-08-31T20:33:10.261Z,15.62
2023-08-31T20:35:43.929Z,15.60
2023-08-31T20:38:17.269Z,15.69
2023-08-31T20:40:50.703Z,15.55
2023-08-31T20:43:25.408Z,15.52
2023-08-31T20:46:07.299Z,15.49
2023-08-31T20:48:40.989Z,15.46
2023-08-31T20:51:17.781Z,15.44
2023-08-31T20:53:50.941Z,15.44
2023-08-31T20:56:25.573Z,15.46
2023-08-31T20:59:00.187Z,15.45
2023-08-31T21:01:34.186Z,15.45
2023-08-31T21:04:07.982Z,15.46
2023-08-31T21:06:45.045Z,15.47
2023-08-31T21:09:18.450Z,15.46
2023-08-31T21:11:51.717Z,15.43
2023-08-31T21:14:27.178Z,15.40
2023-08-31T21:17:00.662Z,15.37
2023-08-31T21:19:33.835Z,15.44
2023-08-31T21:22:09.327Z,15.33
2023-08-31T21:24:43.614Z,15.28
2023-08-31T21:27:16.890Z,15.23
2023-08-31T21:29:51.510Z,15.21
2023-08-31T21:32:24.776Z,15.17
2023-08-31T21:34:58.080Z,15.16
2023-08-31T21:37:31.261Z,15.14
2023-08-31T21:40:04.852Z,15.12
2023-08-31T21:42:37.796Z,15.24
2023-08-31T21:45:12.810Z,15.08
2023-08-31T21:47:46.223Z,15.03
2023-08-31T21:50:19.411Z,15.01
2023-08-31T21:52:52.638Z,15.00
2023-08-31T21:55:26.941Z,14.97
2023-08-31T21:58:00.142Z,14.93
2023-08-31T22:00:34.805Z,14.91
2023-08-31T22:03:09.666Z,14.88
2023-08-31T22:05:43.928Z,14.86
2023-08-31T22:08:17.438Z,14.83
2023-08-31T22:10:52.072Z,14.82
2023-08-31T22:13:25.378Z,14.81
2023-08-31T22:16:02.544Z,14.77
2023-08-31T22:18:40.013Z,14.75
2023-08-31T22:21:12.315Z,14.73
2023-08-31T22:23:45.768Z,14.71
2023-08-31T22:26:19.173Z,14.69
2023-08-31T22:28:52.652Z,14.66
2023-08-31T22:31:27.644Z,14.63
2023-08-31T22:34:03.778Z,14.61
2023-08-31T22:36:37.050Z,14.57
2023-08-31T22:39:10.367Z,14.56
2023-08-31T22:41:45.039Z,14.53
2023-08-31T22:44:18.491Z,14.50
2023-08-31T22:46:53.087Z,14.47
2023-08-31T22:49:26.624Z,14.45
2023-08-31T22:51:59.851Z,14.46
2023-08-31T22:54:33.431Z,14.42
2023-08-31T22:57:07.883Z,14.40
2023-08-31T22:59:42.043Z,14.37
2023-08-31T23:02:17.309Z,14.36
2023-08-31T23:04:50.973Z,14.34
2023-08-31T23:07:23.890Z,14.44
2023-08-31T23:09:57.116Z,14.32
2023-08-31T23:12:30.540Z,14.27
2023-08-31T23:15:03.787Z,14.26
2023-08-31T23:17:38.473Z,14.21
2023-08-31T23:20:12.635Z,14.20
2023-08-31T23:22:47.868Z,14.19
2023-08-31T23:25:21.287Z,14.17
2023-08-31T23:27:54.505Z,14.13
2023-08-31T23:30:28.275Z,14.10
2023-08-31T23:33:02.921Z,14.08
2023-08-31T23:35:36.454Z,14.05
2023-08-31T23:38:09.716Z,14.04
2023-08-31T23:40:44.694Z,14.00
2023-08-31T23:43:17.943Z,13.96
2023-08-31T23:45:51.299Z,13.94
2023-08-31T23:48:26.092Z,13.90
2023-08-31T23:50:59.365Z,13.89
2023-08-31T23:53:34.834Z,13.89
2023-08-31T23:56:08.560Z,13.86
2023-08-31T23:58:41.534Z,13.98
